sensor_id;sensor_type;location;lat;lon;timestamp;P1;durP1;ratioP1;P2;durP2;ratioP2
43986;SDS011;29650;47.378;8.300;2022-12-29T00:00:18;2.85;;;1.20;;
43986;SDS011;29650;47.378;8.300;2022-12-29T00:02:45;2.40;;;1.60;;
43986;SDS011;29650;47.378;8.300;2022-12-29T00:05:12;2.15;;;1.20;;
43986;SDS011;29650;47.378;8.300;2022-12-29T00:07:40;2.65;;;1.73;;
43986;SDS011;29650;47.378;8.300;2022-12-29T00:10:07;3.78;;;1.45;;
43986;SDS011;29650;47.378;8.300;2022-12-29T00:12:34;3.30;;;1.98;;
43986;SDS011;29650;47.378;8.300;2022-12-29T00:15:19;2.17;;;1.92;;
43986;SDS011;29650;47.378;8.300;2022-12-29T00:18:08;2.08;;;1.65;;
43986;SDS011;29650;47.378;8.300;2022-12-29T00:20:36;4.47;;;2.08;;
43986;SDS011;29650;47.378;8.300;2022-12-29T00:23:33;6.15;;;1.58;;
43986;SDS011;29650;47.378;8.300;2022-12-29T00:26:19;9.07;;;3.45;;
43986;SDS011;29650;47.378;8.300;2022-12-29T00:29:04;5.03;;;2.55;;
43986;SDS011;29650;47.378;8.300;2022-12-29T00:31:50;3.33;;;1.85;;
43986;SDS011;29650;47.378;8.300;2022-12-29T00:34:35;2.70;;;1.65;;
43986;SDS011;29650;47.378;8.300;2022-12-29T00:37:20;1.55;;;1.38;;
43986;SDS011;29650;47.378;8.300;2022-12-29T00:40:09;1.75;;;1.10;;
43986;SDS011;29650;47.378;8.300;2022-12-29T00:42:53;2.20;;;1.45;;
43986;SDS011;29650;47.378;8.300;2022-12-29T00:45:39;2.38;;;1.90;;
43986;SDS011;29650;47.378;8.300;2022-12-29T00:48:06;2.17;;;1.20;;
43986;SDS011;29650;47.378;8.300;2022-12-29T00:50:33;5.05;;;1.55;;
43986;SDS011;29650;47.378;8.300;2022-12-29T00:52:59;3.15;;;1.98;;
43986;SDS011;29650;47.378;8.300;2022-12-29T00:55:27;2.88;;;1.30;;
43986;SDS011;29650;47.378;8.300;2022-12-29T00:57:54;7.47;;;1.77;;
43986;SDS011;29650;47.378;8.300;2022-12-29T01:00:21;3.28;;;2.13;;
43986;SDS011;29650;47.378;8.300;2022-12-29T01:02:48;3.63;;;1.45;;
43986;SDS011;29650;47.378;8.300;2022-12-29T01:05:15;3.22;;;1.50;;
43986;SDS011;29650;47.378;8.300;2022-12-29T01:07:42;3.03;;;1.88;;
43986;SDS011;29650;47.378;8.300;2022-12-29T01:10:09;3.53;;;1.67;;
43986;SDS011;29650;47.378;8.300;2022-12-29T01:12:36;3.47;;;2.40;;
43986;SDS011;29650;47.378;8.300;2022-12-29T01:15:11;2.47;;;2.00;;
43986;SDS011;29650;47.378;8.300;2022-12-29T01:20:06;3.40;;;2.08;;
43986;SDS011;29650;47.378;8.300;2022-12-29T01:22:33;2.55;;;1.58;;
43986;SDS011;29650;47.378;8.300;2022-12-29T01:25:00;6.18;;;2.20;;
43986;SDS011;29650;47.378;8.300;2022-12-29T01:27:27;6.40;;;2.92;;
43986;SDS011;29650;47.378;8.300;2022-12-29T01:29:55;2.60;;;2.20;;
43986;SDS011;29650;47.378;8.300;2022-12-29T01:32:22;3.42;;;2.40;;
43986;SDS011;29650;47.378;8.300;2022-12-29T01:34:49;2.47;;;1.60;;
43986;SDS011;29650;47.378;8.300;2022-12-29T01:37:16;2.17;;;1.55;;
43986;SDS011;29650;47.378;8.300;2022-12-29T01:39:43;3.00;;;1.77;;
43986;SDS011;29650;47.378;8.300;2022-12-29T01:42:12;4.28;;;2.05;;
43986;SDS011;29650;47.378;8.300;2022-12-29T01:44:50;4.75;;;2.22;;
43986;SDS011;29650;47.378;8.300;2022-12-29T01:47:22;5.95;;;2.40;;
43986;SDS011;29650;47.378;8.300;2022-12-29T01:49:57;2.15;;;1.80;;
43986;SDS011;29650;47.378;8.300;2022-12-29T01:52:28;4.00;;;1.88;;
43986;SDS011;29650;47.378;8.300;2022-12-29T01:54:58;4.70;;;1.95;;
43986;SDS011;29650;47.378;8.300;2022-12-29T01:59:58;3.33;;;2.03;;
43986;SDS011;29650;47.378;8.300;2022-12-29T02:02:30;3.55;;;2.22;;
43986;SDS011;29650;47.378;8.300;2022-12-29T02:04:58;2.38;;;1.70;;
43986;SDS011;29650;47.378;8.300;2022-12-29T02:07:27;2.55;;;1.40;;
43986;SDS011;29650;47.378;8.300;2022-12-29T02:09:55;4.10;;;2.03;;
43986;SDS011;29650;47.378;8.300;2022-12-29T02:12:22;2.78;;;1.67;;
43986;SDS011;29650;47.378;8.300;2022-12-29T02:14:51;3.00;;;1.63;;
43986;SDS011;29650;47.378;8.300;2022-12-29T02:17:25;2.08;;;1.60;;
43986;SDS011;29650;47.378;8.300;2022-12-29T02:23:19;3.80;;;1.45;;
43986;SDS011;29650;47.378;8.300;2022-12-29T02:29:18;2.75;;;1.80;;
43986;SDS011;29650;47.378;8.300;2022-12-29T02:32:01;2.33;;;2.00;;
43986;SDS011;29650;47.378;8.300;2022-12-29T02:34:35;2.42;;;1.70;;
43986;SDS011;29650;47.378;8.300;2022-12-29T02:37:14;2.00;;;1.60;;
43986;SDS011;29650;47.378;8.300;2022-12-29T02:39:50;4.45;;;2.17;;
43986;SDS011;29650;47.378;8.300;2022-12-29T02:42:23;3.53;;;1.92;;
43986;SDS011;29650;47.378;8.300;2022-12-29T02:44:59;1.70;;;1.50;;
43986;SDS011;29650;47.378;8.300;2022-12-29T02:47:35;1.13;;;1.00;;
43986;SDS011;29650;47.378;8.300;2022-12-29T02:50:06;2.28;;;1.58;;
43986;SDS011;29650;47.378;8.300;2022-12-29T02:52:40;2.70;;;1.52;;
43986;SDS011;29650;47.378;8.300;2022-12-29T02:55:12;1.88;;;1.52;;
43986;SDS011;29650;47.378;8.300;2022-12-29T02:57:38;3.20;;;1.65;;
43986;SDS011;29650;47.378;8.300;2022-12-29T03:00:06;2.55;;;1.77;;
43986;SDS011;29650;47.378;8.300;2022-12-29T03:02:50;3.20;;;1.60;;
43986;SDS011;29650;47.378;8.300;2022-12-29T03:05:40;2.30;;;1.92;;
43986;SDS011;29650;47.378;8.300;2022-12-29T03:08:18;1.88;;;1.33;;
43986;SDS011;29650;47.378;8.300;2022-12-29T03:10:55;3.10;;;1.67;;
43986;SDS011;29650;47.378;8.300;2022-12-29T03:13:26;2.25;;;1.40;;
43986;SDS011;29650;47.378;8.300;2022-12-29T03:16:19;2.78;;;1.80;;
43986;SDS011;29650;47.378;8.300;2022-12-29T03:18:54;2.83;;;1.83;;
43986;SDS011;29650;47.378;8.300;2022-12-29T03:21:25;2.35;;;0.80;;
43986;SDS011;29650;47.378;8.300;2022-12-29T03:24:11;2.35;;;1.40;;
43986;SDS011;29650;47.378;8.300;2022-12-29T03:26:39;1.95;;;1.30;;
43986;SDS011;29650;47.378;8.300;2022-12-29T03:29:09;2.35;;;1.38;;
43986;SDS011;29650;47.378;8.300;2022-12-29T03:31:37;5.07;;;1.90;;
43986;SDS011;29650;47.378;8.300;2022-12-29T03:34:06;1.67;;;1.33;;
43986;SDS011;29650;47.378;8.300;2022-12-29T03:36:38;2.80;;;1.85;;
43986;SDS011;29650;47.378;8.300;2022-12-29T03:39:09;3.42;;;1.98;;
43986;SDS011;29650;47.378;8.300;2022-12-29T03:41:38;2.30;;;1.40;;
43986;SDS011;29650;47.378;8.300;2022-12-29T03:44:09;3.17;;;1.52;;
43986;SDS011;29650;47.378;8.300;2022-12-29T03:46:37;2.80;;;1.10;;
43986;SDS011;29650;47.378;8.300;2022-12-29T03:49:04;1.45;;;1.20;;
43986;SDS011;29650;47.378;8.300;2022-12-29T03:51:32;3.00;;;1.77;;
43986;SDS011;29650;47.378;8.300;2022-12-29T03:53:59;1.67;;;1.20;;
43986;SDS011;29650;47.378;8.300;2022-12-29T03:56:26;5.25;;;1.50;;
43986;SDS011;29650;47.378;8.300;2022-12-29T03:58:53;2.50;;;1.60;;
43986;SDS011;29650;47.378;8.300;2022-12-29T04:01:20;2.53;;;1.63;;
43986;SDS011;29650;47.378;8.300;2022-12-29T04:03:47;2.03;;;1.40;;
43986;SDS011;29650;47.378;8.300;2022-12-29T04:06:14;2.95;;;1.30;;
43986;SDS011;29650;47.378;8.300;2022-12-29T04:08:42;2.70;;;1.38;;
43986;SDS011;29650;47.378;8.300;2022-12-29T04:11:09;2.75;;;1.40;;
43986;SDS011;29650;47.378;8.300;2022-12-29T04:13:36;2.15;;;1.40;;
43986;SDS011;29650;47.378;8.300;2022-12-29T04:16:05;3.53;;;1.40;;
43986;SDS011;29650;47.378;8.300;2022-12-29T04:18:33;3.13;;;1.20;;
43986;SDS011;29650;47.378;8.300;2022-12-29T04:20:59;4.32;;;1.50;;
43986;SDS011;29650;47.378;8.300;2022-12-29T04:23:26;3.20;;;1.88;;
43986;SDS011;29650;47.378;8.300;2022-12-29T04:25:54;3.72;;;1.27;;
43986;SDS011;29650;47.378;8.300;2022-12-29T04:28:21;3.77;;;1.60;;
43986;SDS011;29650;47.378;8.300;2022-12-29T04:30:48;1.90;;;1.10;;
43986;SDS011;29650;47.378;8.300;2022-12-29T04:33:15;2.90;;;1.70;;
43986;SDS011;29650;47.378;8.300;2022-12-29T04:35:42;2.30;;;1.65;;
43986;SDS011;29650;47.378;8.300;2022-12-29T04:38:10;2.63;;;1.27;;
43986;SDS011;29650;47.378;8.300;2022-12-29T04:40:37;2.88;;;1.75;;
43986;SDS011;29650;47.378;8.300;2022-12-29T04:43:06;2.13;;;1.67;;
43986;SDS011;29650;47.378;8.300;2022-12-29T04:45:33;3.13;;;1.43;;
43986;SDS011;29650;47.378;8.300;2022-12-29T04:48:00;2.60;;;1.48;;
43986;SDS011;29650;47.378;8.300;2022-12-29T04:50:27;2.13;;;1.20;;
43986;SDS011;29650;47.378;8.300;2022-12-29T04:52:54;3.38;;;1.73;;
43986;SDS011;29650;47.378;8.300;2022-12-29T04:55:21;1.48;;;1.05;;
43986;SDS011;29650;47.378;8.300;2022-12-29T04:57:48;2.58;;;1.50;;
43986;SDS011;29650;47.378;8.300;2022-12-29T05:00:16;1.40;;;1.30;;
43986;SDS011;29650;47.378;8.300;2022-12-29T05:02:43;1.45;;;1.05;;
43986;SDS011;29650;47.378;8.300;2022-12-29T05:05:10;1.52;;;1.23;;
43986;SDS011;29650;47.378;8.300;2022-12-29T05:07:37;2.65;;;1.35;;
43986;SDS011;29650;47.378;8.300;2022-12-29T05:10:05;5.13;;;1.60;;
43986;SDS011;29650;47.378;8.300;2022-12-29T05:12:34;2.57;;;1.67;;
43986;SDS011;29650;47.378;8.300;2022-12-29T05:15:03;1.92;;;1.10;;
43986;SDS011;29650;47.378;8.300;2022-12-29T05:17:32;2.28;;;1.42;;
43986;SDS011;29650;47.378;8.300;2022-12-29T05:19:59;15.57;;;1.83;;
43986;SDS011;29650;47.378;8.300;2022-12-29T05:22:26;3.85;;;1.45;;
43986;SDS011;29650;47.378;8.300;2022-12-29T05:24:53;2.85;;;1.35;;
43986;SDS011;29650;47.378;8.300;2022-12-29T05:27:20;2.42;;;1.35;;
43986;SDS011;29650;47.378;8.300;2022-12-29T05:29:47;3.15;;;1.55;;
43986;SDS011;29650;47.378;8.300;2022-12-29T05:32:14;4.15;;;1.30;;
43986;SDS011;29650;47.378;8.300;2022-12-29T05:34:42;1.27;;;1.15;;
43986;SDS011;29650;47.378;8.300;2022-12-29T05:37:09;2.60;;;1.50;;
43986;SDS011;29650;47.378;8.300;2022-12-29T05:39:36;2.15;;;1.42;;
43986;SDS011;29650;47.378;8.300;2022-12-29T05:42:03;1.45;;;1.27;;
43986;SDS011;29650;47.378;8.300;2022-12-29T05:44:30;2.10;;;1.27;;
43986;SDS011;29650;47.378;8.300;2022-12-29T05:46:57;1.45;;;0.50;;
43986;SDS011;29650;47.378;8.300;2022-12-29T05:49:24;3.28;;;0.98;;
43986;SDS011;29650;47.378;8.300;2022-12-29T05:51:52;9.27;;;1.52;;
43986;SDS011;29650;47.378;8.300;2022-12-29T05:54:19;1.92;;;1.17;;
43986;SDS011;29650;47.378;8.300;2022-12-29T05:56:46;1.45;;;0.93;;
43986;SDS011;29650;47.378;8.300;2022-12-29T05:59:13;3.53;;;1.55;;
43986;SDS011;29650;47.378;8.300;2022-12-29T06:01:40;4.15;;;2.00;;
43986;SDS011;29650;47.378;8.300;2022-12-29T06:04:07;2.58;;;1.52;;
43986;SDS011;29650;47.378;8.300;2022-12-29T06:06:34;3.60;;;1.33;;
43986;SDS011;29650;47.378;8.300;2022-12-29T06:09:02;3.63;;;1.40;;
43986;SDS011;29650;47.378;8.300;2022-12-29T06:11:29;3.50;;;1.53;;
43986;SDS011;29650;47.378;8.300;2022-12-29T06:13:56;6.35;;;2.22;;
43986;SDS011;29650;47.378;8.300;2022-12-29T06:16:23;4.22;;;1.42;;
43986;SDS011;29650;47.378;8.300;2022-12-29T06:18:50;3.15;;;1.45;;
43986;SDS011;29650;47.378;8.300;2022-12-29T06:21:16;4.32;;;1.73;;
43986;SDS011;29650;47.378;8.300;2022-12-29T06:23:43;4.38;;;1.20;;
43986;SDS011;29650;47.378;8.300;2022-12-29T06:26:12;5.10;;;1.70;;
43986;SDS011;29650;47.378;8.300;2022-12-29T06:28:39;3.20;;;1.75;;
43986;SDS011;29650;47.378;8.300;2022-12-29T06:31:08;2.30;;;1.08;;
43986;SDS011;29650;47.378;8.300;2022-12-29T06:33:36;3.35;;;1.48;;
43986;SDS011;29650;47.378;8.300;2022-12-29T06:36:03;2.40;;;1.25;;
43986;SDS011;29650;47.378;8.300;2022-12-29T06:38:30;7.13;;;1.63;;
43986;SDS011;29650;47.378;8.300;2022-12-29T06:40:57;13.05;;;1.30;;
43986;SDS011;29650;47.378;8.300;2022-12-29T06:43:25;6.20;;;1.55;;
43986;SDS011;29650;47.378;8.300;2022-12-29T06:45:52;1.90;;;1.27;;
43986;SDS011;29650;47.378;8.300;2022-12-29T06:48:19;7.97;;;2.15;;
43986;SDS011;29650;47.378;8.300;2022-12-29T06:50:46;2.58;;;1.50;;
43986;SDS011;29650;47.378;8.300;2022-12-29T06:53:13;3.70;;;1.50;;
43986;SDS011;29650;47.378;8.300;2022-12-29T06:55:41;6.68;;;1.40;;
43986;SDS011;29650;47.378;8.300;2022-12-29T06:58:08;4.15;;;1.40;;
43986;SDS011;29650;47.378;8.300;2022-12-29T07:00:36;5.20;;;1.83;;
43986;SDS011;29650;47.378;8.300;2022-12-29T07:03:03;5.75;;;1.42;;
43986;SDS011;29650;47.378;8.300;2022-12-29T07:05:30;2.67;;;1.00;;
43986;SDS011;29650;47.378;8.300;2022-12-29T07:07:57;2.92;;;1.63;;
43986;SDS011;29650;47.378;8.300;2022-12-29T07:10:25;2.70;;;1.25;;
43986;SDS011;29650;47.378;8.300;2022-12-29T07:12:52;4.30;;;1.75;;
43986;SDS011;29650;47.378;8.300;2022-12-29T07:15:19;1.85;;;1.17;;
43986;SDS011;29650;47.378;8.300;2022-12-29T07:17:47;5.32;;;1.63;;
43986;SDS011;29650;47.378;8.300;2022-12-29T07:20:15;7.07;;;1.70;;
43986;SDS011;29650;47.378;8.300;2022-12-29T07:22:45;2.88;;;1.42;;
43986;SDS011;29650;47.378;8.300;2022-12-29T07:25:13;6.63;;;1.63;;
43986;SDS011;29650;47.378;8.300;2022-12-29T07:27:40;2.47;;;1.33;;
43986;SDS011;29650;47.378;8.300;2022-12-29T07:30:07;2.22;;;1.27;;
43986;SDS011;29650;47.378;8.300;2022-12-29T07:32:35;10.63;;;1.63;;
43986;SDS011;29650;47.378;8.300;2022-12-29T07:35:03;6.65;;;1.33;;
43986;SDS011;29650;47.378;8.300;2022-12-29T07:37:31;1.17;;;1.08;;
43986;SDS011;29650;47.378;8.300;2022-12-29T07:39:58;5.20;;;1.50;;
43986;SDS011;29650;47.378;8.300;2022-12-29T07:42:24;3.03;;;1.60;;
43986;SDS011;29650;47.378;8.300;2022-12-29T07:44:51;8.23;;;1.65;;
43986;SDS011;29650;47.378;8.300;2022-12-29T07:47:18;3.80;;;1.38;;
43986;SDS011;29650;47.378;8.300;2022-12-29T07:49:45;4.70;;;1.55;;
43986;SDS011;29650;47.378;8.300;2022-12-29T07:52:13;3.28;;;1.17;;
43986;SDS011;29650;47.378;8.300;2022-12-29T07:54:40;2.22;;;1.42;;
43986;SDS011;29650;47.378;8.300;2022-12-29T07:57:07;3.67;;;1.23;;
43986;SDS011;29650;47.378;8.300;2022-12-29T07:59:34;1.85;;;1.27;;
43986;SDS011;29650;47.378;8.300;2022-12-29T08:02:01;2.15;;;1.33;;
43986;SDS011;29650;47.378;8.300;2022-12-29T08:04:28;3.92;;;1.40;;
43986;SDS011;29650;47.378;8.300;2022-12-29T08:06:55;1.98;;;1.20;;
43986;SDS011;29650;47.378;8.300;2022-12-29T08:09:23;1.83;;;1.63;;
43986;SDS011;29650;47.378;8.300;2022-12-29T08:11:50;2.08;;;1.77;;
43986;SDS011;29650;47.378;8.300;2022-12-29T08:14:18;4.80;;;1.95;;
43986;SDS011;29650;47.378;8.300;2022-12-29T08:16:45;1.15;;;1.02;;
43986;SDS011;29650;47.378;8.300;2022-12-29T08:19:12;3.67;;;1.75;;
43986;SDS011;29650;47.378;8.300;2022-12-29T08:21:40;10.77;;;1.45;;
43986;SDS011;29650;47.378;8.300;2022-12-29T08:24:07;1.55;;;1.10;;
43986;SDS011;29650;47.378;8.300;2022-12-29T08:26:36;2.88;;;1.70;;
43986;SDS011;29650;47.378;8.300;2022-12-29T08:29:03;3.53;;;1.60;;
43986;SDS011;29650;47.378;8.300;2022-12-29T08:31:30;2.03;;;1.30;;
43986;SDS011;29650;47.378;8.300;2022-12-29T08:33:57;2.33;;;1.23;;
43986;SDS011;29650;47.378;8.300;2022-12-29T08:36:25;2.28;;;1.20;;
43986;SDS011;29650;47.378;8.300;2022-12-29T08:38:51;2.45;;;1.30;;
43986;SDS011;29650;47.378;8.300;2022-12-29T08:41:18;2.25;;;1.30;;
43986;SDS011;29650;47.378;8.300;2022-12-29T08:43:47;1.45;;;1.20;;
43986;SDS011;29650;47.378;8.300;2022-12-29T08:46:15;8.75;;;1.58;;
43986;SDS011;29650;47.378;8.300;2022-12-29T08:48:42;2.92;;;1.40;;
43986;SDS011;29650;47.378;8.300;2022-12-29T08:51:09;4.45;;;1.33;;
43986;SDS011;29650;47.378;8.300;2022-12-29T08:53:36;2.30;;;1.40;;
43986;SDS011;29650;47.378;8.300;2022-12-29T08:56:03;2.83;;;1.60;;
43986;SDS011;29650;47.378;8.300;2022-12-29T08:58:30;3.28;;;1.50;;
43986;SDS011;29650;47.378;8.300;2022-12-29T09:00:59;2.45;;;1.30;;
43986;SDS011;29650;47.378;8.300;2022-12-29T09:03:26;2.50;;;1.20;;
43986;SDS011;29650;47.378;8.300;2022-12-29T09:05:54;1.65;;;1.30;;
43986;SDS011;29650;47.378;8.300;2022-12-29T09:08:21;3.05;;;1.42;;
43986;SDS011;29650;47.378;8.300;2022-12-29T09:10:49;3.15;;;1.10;;
43986;SDS011;29650;47.378;8.300;2022-12-29T09:13:16;3.15;;;1.40;;
43986;SDS011;29650;47.378;8.300;2022-12-29T09:15:43;7.50;;;2.00;;
43986;SDS011;29650;47.378;8.300;2022-12-29T09:18:12;2.45;;;1.40;;
43986;SDS011;29650;47.378;8.300;2022-12-29T09:20:39;5.90;;;1.50;;
43986;SDS011;29650;47.378;8.300;2022-12-29T09:23:06;1.30;;;1.20;;
43986;SDS011;29650;47.378;8.300;2022-12-29T09:25:33;1.95;;;1.00;;
43986;SDS011;29650;47.378;8.300;2022-12-29T09:28:00;3.05;;;1.38;;
43986;SDS011;29650;47.378;8.300;2022-12-29T09:30:32;3.42;;;1.17;;
43986;SDS011;29650;47.378;8.300;2022-12-29T09:32:59;2.75;;;1.45;;
43986;SDS011;29650;47.378;8.300;2022-12-29T09:35:27;1.95;;;1.15;;
43986;SDS011;29650;47.378;8.300;2022-12-29T09:37:54;1.75;;;1.10;;
43986;SDS011;29650;47.378;8.300;2022-12-29T09:40:26;2.47;;;1.60;;
43986;SDS011;29650;47.378;8.300;2022-12-29T09:43:01;3.72;;;0.85;;
43986;SDS011;29650;47.378;8.300;2022-12-29T09:45:35;7.88;;;1.38;;
43986;SDS011;29650;47.378;8.300;2022-12-29T09:48:07;0.93;;;0.75;;
43986;SDS011;29650;47.378;8.300;2022-12-29T09:50:42;2.58;;;1.42;;
43986;SDS011;29650;47.378;8.300;2022-12-29T09:53:14;2.25;;;1.02;;
43986;SDS011;29650;47.378;8.300;2022-12-29T09:55:47;1.77;;;1.10;;
43986;SDS011;29650;47.378;8.300;2022-12-29T09:58:17;2.10;;;0.95;;
43986;SDS011;29650;47.378;8.300;2022-12-29T10:00:52;1.38;;;1.25;;
43986;SDS011;29650;47.378;8.300;2022-12-29T10:03:24;1.48;;;0.80;;
43986;SDS011;29650;47.378;8.300;2022-12-29T10:06:02;2.58;;;1.10;;
43986;SDS011;29650;47.378;8.300;2022-12-29T10:08:37;3.17;;;1.83;;
43986;SDS011;29650;47.378;8.300;2022-12-29T10:11:09;2.88;;;1.00;;
43986;SDS011;29650;47.378;8.300;2022-12-29T10:13:48;2.53;;;1.52;;
43986;SDS011;29650;47.378;8.300;2022-12-29T10:16:30;1.55;;;1.13;;
43986;SDS011;29650;47.378;8.300;2022-12-29T10:22:09;2.25;;;1.08;;
43986;SDS011;29650;47.378;8.300;2022-12-29T10:24:46;2.63;;;1.50;;
43986;SDS011;29650;47.378;8.300;2022-12-29T10:27:15;4.65;;;1.50;;
43986;SDS011;29650;47.378;8.300;2022-12-29T10:29:44;1.25;;;0.60;;
43986;SDS011;29650;47.378;8.300;2022-12-29T10:32:18;1.15;;;0.90;;
43986;SDS011;29650;47.378;8.300;2022-12-29T10:34:54;3.97;;;1.00;;
43986;SDS011;29650;47.378;8.300;2022-12-29T10:37:27;4.55;;;0.80;;
43986;SDS011;29650;47.378;8.300;2022-12-29T10:39:59;1.15;;;0.80;;
43986;SDS011;29650;47.378;8.300;2022-12-29T10:42:39;2.70;;;1.20;;
43986;SDS011;29650;47.378;8.300;2022-12-29T10:45:10;4.63;;;1.15;;
43986;SDS011;29650;47.378;8.300;2022-12-29T10:47:42;2.10;;;1.17;;
43986;SDS011;29650;47.378;8.300;2022-12-29T10:50:18;0.60;;;0.60;;
43986;SDS011;29650;47.378;8.300;2022-12-29T10:52:47;2.60;;;0.75;;
43986;SDS011;29650;47.378;8.300;2022-12-29T10:55:15;4.70;;;1.33;;
43986;SDS011;29650;47.378;8.300;2022-12-29T10:57:47;2.70;;;1.05;;
43986;SDS011;29650;47.378;8.300;2022-12-29T11:00:16;7.85;;;1.15;;
43986;SDS011;29650;47.378;8.300;2022-12-29T11:02:56;1.83;;;0.88;;
43986;SDS011;29650;47.378;8.300;2022-12-29T11:05:39;1.95;;;0.93;;
43986;SDS011;29650;47.378;8.300;2022-12-29T11:08:13;2.75;;;1.05;;
43986;SDS011;29650;47.378;8.300;2022-12-29T11:10:43;1.17;;;0.47;;
43986;SDS011;29650;47.378;8.300;2022-12-29T11:13:12;5.20;;;1.00;;
43986;SDS011;29650;47.378;8.300;2022-12-29T11:15:41;6.70;;;0.93;;
43986;SDS011;29650;47.378;8.300;2022-12-29T11:18:19;1.02;;;0.73;;
43986;SDS011;29650;47.378;8.300;2022-12-29T11:20:48;1.55;;;1.38;;
43986;SDS011;29650;47.378;8.300;2022-12-29T11:23:25;1.88;;;0.75;;
43986;SDS011;29650;47.378;8.300;2022-12-29T11:26:05;2.90;;;0.93;;
43986;SDS011;29650;47.378;8.300;2022-12-29T11:28:44;2.40;;;0.85;;
43986;SDS011;29650;47.378;8.300;2022-12-29T11:33:42;0.82;;;0.70;;
43986;SDS011;29650;47.378;8.300;2022-12-29T11:36:10;1.65;;;0.80;;
43986;SDS011;29650;47.378;8.300;2022-12-29T11:38:42;1.77;;;0.80;;
43986;SDS011;29650;47.378;8.300;2022-12-29T11:41:22;2.15;;;1.27;;
43986;SDS011;29650;47.378;8.300;2022-12-29T11:43:50;0.98;;;0.63;;
43986;SDS011;29650;47.378;8.300;2022-12-29T11:46:19;1.17;;;0.70;;
43986;SDS011;29650;47.378;8.300;2022-12-29T11:48:50;1.15;;;0.50;;
43986;SDS011;29650;47.378;8.300;2022-12-29T11:51:21;4.30;;;1.50;;
43986;SDS011;29650;47.378;8.300;2022-12-29T11:53:51;2.58;;;0.85;;
43986;SDS011;29650;47.378;8.300;2022-12-29T11:56:32;1.63;;;0.60;;
43986;SDS011;29650;47.378;8.300;2022-12-29T12:02:08;3.10;;;0.70;;
43986;SDS011;29650;47.378;8.300;2022-12-29T12:04:51;1.50;;;0.70;;
43986;SDS011;29650;47.378;8.300;2022-12-29T12:07:29;2.25;;;1.17;;
43986;SDS011;29650;47.378;8.300;2022-12-29T12:12:39;1.05;;;0.70;;
43986;SDS011;29650;47.378;8.300;2022-12-29T12:15:13;4.45;;;1.00;;
43986;SDS011;29650;47.378;8.300;2022-12-29T12:17:47;5.20;;;0.63;;
43986;SDS011;29650;47.378;8.300;2022-12-29T12:20:18;1.75;;;0.50;;
43986;SDS011;29650;47.378;8.300;2022-12-29T12:22:51;1.70;;;0.70;;
43986;SDS011;29650;47.378;8.300;2022-12-29T12:25:29;1.95;;;0.80;;
43986;SDS011;29650;47.378;8.300;2022-12-29T12:28:01;2.05;;;0.98;;
43986;SDS011;29650;47.378;8.300;2022-12-29T12:30:37;3.40;;;0.85;;
43986;SDS011;29650;47.378;8.300;2022-12-29T12:33:13;1.13;;;0.70;;
43986;SDS011;29650;47.378;8.300;2022-12-29T12:35:49;1.42;;;0.82;;
43986;SDS011;29650;47.378;8.300;2022-12-29T12:38:28;2.00;;;1.00;;
43986;SDS011;29650;47.378;8.300;2022-12-29T12:41:08;2.50;;;0.90;;
43986;SDS011;29650;47.378;8.300;2022-12-29T12:43:39;1.30;;;0.60;;
43986;SDS011;29650;47.378;8.300;2022-12-29T12:46:31;1.50;;;0.95;;
43986;SDS011;29650;47.378;8.300;2022-12-29T12:49:35;0.55;;;0.55;;
43986;SDS011;29650;47.378;8.300;2022-12-29T12:52:27;1.15;;;0.60;;
43986;SDS011;29650;47.378;8.300;2022-12-29T12:55:06;3.38;;;0.55;;
43986;SDS011;29650;47.378;8.300;2022-12-29T12:57:52;0.88;;;0.52;;
43986;SDS011;29650;47.378;8.300;2022-12-29T13:00:27;1.55;;;0.63;;
43986;SDS011;29650;47.378;8.300;2022-12-29T13:03:03;2.45;;;0.93;;
43986;SDS011;29650;47.378;8.300;2022-12-29T13:05:46;1.67;;;0.77;;
43986;SDS011;29650;47.378;8.300;2022-12-29T13:08:25;1.42;;;0.73;;
43986;SDS011;29650;47.378;8.300;2022-12-29T13:11:13;2.40;;;0.80;;
43986;SDS011;29650;47.378;8.300;2022-12-29T13:14:07;3.20;;;0.88;;
43986;SDS011;29650;47.378;8.300;2022-12-29T13:16:44;1.10;;;0.82;;
43986;SDS011;29650;47.378;8.300;2022-12-29T13:19:17;1.65;;;0.80;;
43986;SDS011;29650;47.378;8.300;2022-12-29T13:21:55;2.22;;;0.98;;
43986;SDS011;29650;47.378;8.300;2022-12-29T13:24:29;2.50;;;0.80;;
43986;SDS011;29650;47.378;8.300;2022-12-29T13:27:09;1.35;;;0.45;;
43986;SDS011;29650;47.378;8.300;2022-12-29T13:29:45;1.38;;;0.90;;
43986;SDS011;29650;47.378;8.300;2022-12-29T13:32:21;1.27;;;0.80;;
43986;SDS011;29650;47.378;8.300;2022-12-29T13:35:02;1.88;;;0.68;;
43986;SDS011;29650;47.378;8.300;2022-12-29T13:37:46;1.33;;;0.40;;
43986;SDS011;29650;47.378;8.300;2022-12-29T13:40:17;6.43;;;0.80;;
43986;SDS011;29650;47.378;8.300;2022-12-29T13:42:47;2.50;;;0.50;;
43986;SDS011;29650;47.378;8.300;2022-12-29T13:45:18;3.72;;;0.82;;
43986;SDS011;29650;47.378;8.300;2022-12-29T13:47:48;1.08;;;0.60;;
43986;SDS011;29650;47.378;8.300;2022-12-29T13:50:19;3.75;;;0.47;;
43986;SDS011;29650;47.378;8.300;2022-12-29T13:52:49;4.05;;;0.63;;
43986;SDS011;29650;47.378;8.300;2022-12-29T13:55:29;1.38;;;0.65;;
43986;SDS011;29650;47.378;8.300;2022-12-29T13:58:03;2.05;;;0.45;;
43986;SDS011;29650;47.378;8.300;2022-12-29T14:00:38;1.20;;;0.60;;
43986;SDS011;29650;47.378;8.300;2022-12-29T14:03:17;0.82;;;0.50;;
43986;SDS011;29650;47.378;8.300;2022-12-29T14:06:05;1.85;;;1.17;;
43986;SDS011;29650;47.378;8.300;2022-12-29T14:08:41;3.22;;;1.10;;
43986;SDS011;29650;47.378;8.300;2022-12-29T14:11:09;2.10;;;0.88;;
43986;SDS011;29650;47.378;8.300;2022-12-29T14:16:07;0.40;;;0.30;;
43986;SDS011;29650;47.378;8.300;2022-12-29T14:18:48;0.30;;;0.30;;
43986;SDS011;29650;47.378;8.300;2022-12-29T14:21:17;7.40;;;1.00;;
43986;SDS011;29650;47.378;8.300;2022-12-29T14:23:48;11.77;;;1.27;;
43986;SDS011;29650;47.378;8.300;2022-12-29T14:26:32;1.33;;;0.55;;
43986;SDS011;29650;47.378;8.300;2022-12-29T14:38:13;0.95;;;0.60;;
43986;SDS011;29650;47.378;8.300;2022-12-29T14:40:42;1.85;;;0.73;;
43986;SDS011;29650;47.378;8.300;2022-12-29T14:43:11;0.80;;;0.63;;
43986;SDS011;29650;47.378;8.300;2022-12-29T14:45:40;5.97;;;0.85;;
43986;SDS011;29650;47.378;8.300;2022-12-29T14:48:25;2.38;;;0.75;;
43986;SDS011;29650;47.378;8.300;2022-12-29T14:51:17;1.08;;;0.57;;
43986;SDS011;29650;47.378;8.300;2022-12-29T14:53:47;1.30;;;0.93;;
43986;SDS011;29650;47.378;8.300;2022-12-29T14:56:16;1.50;;;0.60;;
43986;SDS011;29650;47.378;8.300;2022-12-29T15:01:18;1.63;;;0.63;;
43986;SDS011;29650;47.378;8.300;2022-12-29T15:03:50;3.22;;;0.60;;
43986;SDS011;29650;47.378;8.300;2022-12-29T15:06:20;2.33;;;0.65;;
43986;SDS011;29650;47.378;8.300;2022-12-29T15:08:50;1.40;;;0.73;;
43986;SDS011;29650;47.378;8.300;2022-12-29T15:11:21;2.40;;;0.85;;
43986;SDS011;29650;47.378;8.300;2022-12-29T15:13:50;0.88;;;0.52;;
43986;SDS011;29650;47.378;8.300;2022-12-29T15:16:20;4.43;;;1.45;;
43986;SDS011;29650;47.378;8.300;2022-12-29T15:18:51;1.23;;;0.70;;
43986;SDS011;29650;47.378;8.300;2022-12-29T15:21:19;0.67;;;0.50;;
43986;SDS011;29650;47.378;8.300;2022-12-29T15:23:49;1.40;;;0.90;;
43986;SDS011;29650;47.378;8.300;2022-12-29T15:26:17;1.10;;;0.70;;
43986;SDS011;29650;47.378;8.300;2022-12-29T15:28:48;5.80;;;0.73;;
43986;SDS011;29650;47.378;8.300;2022-12-29T15:31:17;1.98;;;0.75;;
43986;SDS011;29650;47.378;8.300;2022-12-29T15:33:46;0.63;;;0.57;;
43986;SDS011;29650;47.378;8.300;2022-12-29T15:38:45;1.05;;;0.70;;
43986;SDS011;29650;47.378;8.300;2022-12-29T15:41:18;1.38;;;0.70;;
43986;SDS011;29650;47.378;8.300;2022-12-29T15:44:20;2.20;;;0.80;;
43986;SDS011;29650;47.378;8.300;2022-12-29T15:46:50;3.65;;;0.52;;
43986;SDS011;29650;47.378;8.300;2022-12-29T15:49:17;0.40;;;0.40;;
43986;SDS011;29650;47.378;8.300;2022-12-29T15:51:46;3.63;;;0.98;;